createdAt,value
2018-12-09T00:01:46.036Z,6.50
2018-12-09T00:04:15.852Z,6.60
2018-12-09T00:06:45.635Z,6.50
2018-12-09T00:14:15.803Z,6.50
2018-12-09T00:16:45.756Z,6.50
2018-12-09T00:21:44.688Z,6.30
2018-12-09T00:24:14.555Z,6.20
2018-12-09T00:26:46.837Z,6.10
2018-12-09T00:31:47.331Z,6.10
2018-12-09T00:39:21.579Z,6.10
2018-12-09T00:44:20.083Z,6.00
2018-12-09T00:46:49.968Z,6.00
2018-12-09T00:49:22.068Z,6.00
2018-12-09T00:51:50.857Z,6.10
2018-12-09T00:56:48.500Z,6.10
2018-12-09T00:59:19.263Z,6.10
2018-12-09T01:01:52.516Z,6.10
2018-12-09T01:04:22.280Z,6.20
2018-12-09T01:06:52.159Z,6.10
2018-12-09T01:09:21.027Z,6.10
2018-12-09T01:11:53.128Z,6.10
2018-12-09T01:17:01.159Z,6.10
2018-12-09T01:24:31.137Z,6.10
2018-12-09T01:32:09.252Z,6.10
2018-12-09T01:34:42.040Z,6.20
2018-12-09T01:42:13.408Z,6.20
2018-12-09T01:50:08.980Z,6.50
2018-12-09T01:52:41.088Z,6.50
2018-12-09T02:05:15.564Z,6.60
2018-12-09T02:07:48.616Z,6.60
2018-12-09T02:10:21.192Z,6.70
2018-12-09T02:18:13.020Z,6.70
2018-12-09T02:20:41.887Z,6.80
2018-12-09T02:23:12.769Z,6.80
2018-12-09T02:25:43.680Z,6.80
2018-12-09T02:28:12.528Z,6.90
2018-12-09T02:30:42.403Z,6.90
2018-12-09T02:35:47.156Z,7.00
2018-12-09T02:38:45.180Z,7.00
2018-12-09T02:41:14.240Z,7.00
2018-12-09T02:46:13.980Z,7.00
2018-12-09T02:54:23.820Z,7.00
2018-12-09T02:59:28.028Z,7.10
2018-12-09T03:04:31.615Z,7.10
2018-12-09T03:07:01.365Z,7.00
2018-12-09T03:09:30.264Z,7.10
2018-12-09T03:12:21.071Z,7.10
2018-12-09T03:17:19.713Z,7.10
2018-12-09T03:19:49.543Z,7.10
2018-12-09T03:22:22.357Z,7.20
2018-12-09T03:25:01.673Z,7.20
2018-12-09T03:27:58.845Z,7.20
2018-12-09T03:30:31.929Z,7.20
2018-12-09T03:35:50.896Z,7.20
2018-12-09T03:38:25.217Z,7.10
2018-12-09T03:40:54.142Z,7.10
2018-12-09T03:43:26.120Z,7.10
2018-12-09T03:45:55.016Z,7.10
2018-12-09T03:48:34.404Z,7.00
2018-12-09T03:51:07.980Z,7.00
2018-12-09T03:53:41.740Z,7.00
2018-12-09T03:56:18.068Z,7.00
2018-12-09T03:58:46.922Z,6.90
2018-12-09T04:03:51.152Z,6.90
2018-12-09T04:06:20.984Z,6.90
2018-12-09T04:08:50.948Z,6.90
2018-12-09T04:11:21.784Z,6.90
2018-12-09T04:14:09.976Z,6.90
2018-12-09T04:16:39.177Z,6.90
2018-12-09T04:19:08.385Z,6.90
2018-12-09T04:21:37.268Z,6.90
2018-12-09T04:24:10.809Z,6.90
2018-12-09T04:29:24.337Z,6.90
2018-12-09T04:31:59.189Z,6.90
2018-12-09T04:34:28.048Z,6.90
2018-12-09T04:36:56.929Z,6.80
2018-12-09T04:44:35.076Z,6.80
2018-12-09T04:47:10.773Z,6.80
2018-12-09T04:49:40.617Z,6.70
2018-12-09T04:54:39.381Z,6.70
2018-12-09T04:57:16.200Z,6.70
2018-12-09T04:59:47.720Z,6.70
2018-12-09T05:02:21.940Z,6.70
2018-12-09T05:04:50.805Z,6.70
2018-12-09T05:09:50.781Z,6.60
2018-12-09T05:14:53.585Z,6.50
2018-12-09T05:17:23.433Z,6.50
2018-12-09T05:19:58.113Z,6.50
2018-12-09T05:22:27.029Z,6.50
2018-12-09T05:24:56.849Z,6.50
2018-12-09T05:27:27.722Z,6.40
2018-12-09T05:32:36.898Z,6.30
2018-12-09T05:35:10.717Z,6.30
2018-12-09T05:37:41.557Z,6.30
2018-12-09T05:40:12.012Z,6.20
2018-12-09T05:42:41.173Z,6.10
2018-12-09T05:45:10.093Z,6.10
2018-12-09T05:47:39.310Z,6.00
2018-12-09T05:50:09.093Z,5.90
2018-12-09T05:52:38.877Z,5.80
2018-12-09T05:55:08.729Z,5.70
2018-12-09T05:57:40.657Z,5.70
2018-12-09T06:00:10.549Z,5.70
2018-12-09T06:10:28.694Z,5.70
2018-12-09T06:12:57.558Z,5.70
2018-12-09T06:15:37.790Z,5.80
2018-12-09T06:20:42.353Z,5.70
2018-12-09T06:23:15.595Z,5.80
2018-12-09T06:25:48.521Z,5.90
2018-12-09T06:28:17.325Z,5.90
2018-12-09T06:30:50.926Z,5.90
2018-12-09T06:33:20.747Z,5.90
2018-12-09T06:35:49.610Z,5.90
2018-12-09T06:40:49.142Z,5.90
2018-12-09T06:43:17.965Z,5.90
2018-12-09T06:45:47.785Z,5.90
2018-12-09T06:48:16.653Z,5.90
2018-12-09T06:53:16.245Z,5.90
2018-12-09T06:55:45.112Z,5.90
2018-12-09T06:58:14.937Z,5.80
2018-12-09T07:00:43.821Z,5.80
2018-12-09T07:03:15.786Z,5.80
2018-12-09T07:05:48.505Z,5.80
2018-12-09T07:10:46.386Z,5.80
2018-12-09T07:13:15.235Z,5.80
2018-12-09T07:15:44.077Z,5.70
2018-12-09T07:18:12.923Z,5.70
2018-12-09T07:20:54.288Z,5.70
2018-12-09T07:26:17.382Z,5.70
2018-12-09T07:28:48.209Z,5.70
2018-12-09T07:31:18.989Z,5.70
2018-12-09T07:33:51.120Z,5.80
2018-12-09T07:38:53.618Z,5.80
2018-12-09T07:41:40.753Z,5.80
2018-12-09T07:46:38.462Z,5.80
2018-12-09T07:51:44.378Z,5.70
2018-12-09T07:54:17.398Z,5.70
2018-12-09T07:56:56.070Z,5.70
2018-12-09T07:59:24.938Z,5.70
2018-12-09T08:01:58.270Z,5.80
2018-12-09T08:04:31.954Z,5.80
2018-12-09T08:07:03.954Z,5.80
2018-12-09T08:09:36.700Z,5.80
2018-12-09T08:12:14.046Z,5.80
2018-12-09T08:14:44.822Z,5.80
2018-12-09T08:17:18.974Z,5.80
2018-12-09T08:19:47.846Z,5.80
2018-12-09T08:27:44.667Z,6.00
2018-12-09T08:30:24.862Z,5.90
2018-12-09T08:33:01.514Z,6.00
2018-12-09T08:35:30.322Z,6.20
2018-12-09T08:38:18.458Z,6.30
2018-12-09T08:41:06.529Z,6.40
2018-12-09T08:43:37.353Z,6.50
2018-12-09T08:46:08.286Z,6.60
2018-12-09T08:51:18.230Z,6.60
2018-12-09T08:53:49.122Z,6.60
2018-12-09T08:56:21.026Z,6.60
2018-12-09T09:03:48.294Z,6.40
2018-12-09T09:11:16.526Z,6.30
2018-12-09T09:13:47.293Z,6.40
2018-12-09T09:23:48.179Z,6.70
2018-12-09T09:31:31.434Z,6.70
2018-12-09T09:34:14.210Z,6.80
2018-12-09T09:36:43.098Z,6.70
2018-12-09T09:39:12.779Z,6.70
2018-12-09T09:41:46.089Z,6.70
2018-12-09T09:46:49.207Z,6.60
2018-12-09T09:49:19.890Z,6.70
2018-12-09T09:54:36.389Z,6.80
2018-12-09T09:57:06.066Z,6.80
2018-12-09T09:59:39.401Z,6.90
2018-12-09T10:07:10.433Z,6.90
2018-12-09T10:14:44.145Z,7.20
2018-12-09T10:19:49.891Z,7.40
2018-12-09T10:24:52.265Z,7.60
2018-12-09T10:34:55.397Z,7.50
2018-12-09T10:37:26.085Z,7.30
2018-12-09T10:42:29.087Z,6.90
2018-12-09T10:45:07.701Z,6.80
2018-12-09T10:52:46.213Z,6.80
2018-12-09T11:00:20.261Z,6.80
2018-12-09T11:02:49.101Z,6.80
2018-12-09T11:05:17.945Z,6.80
2018-12-09T11:12:44.296Z,6.70
2018-12-09T11:15:19.478Z,6.70
2018-12-09T11:20:25.523Z,6.80
2018-12-09T11:27:58.455Z,6.80
2018-12-09T11:30:32.631Z,6.90
2018-12-09T11:35:36.006Z,6.80
2018-12-09T11:38:07.907Z,6.90
2018-12-09T11:43:06.439Z,6.90
2018-12-09T11:48:11.331Z,6.90
2018-12-09T11:50:40.215Z,6.90
2018-12-09T11:53:14.671Z,6.90
2018-12-09T11:55:53.199Z,6.90
2018-12-09T12:00:53.671Z,6.90
2018-12-09T12:03:23.435Z,6.80
2018-12-09T12:05:53.187Z,6.90
2018-12-09T12:08:22.039Z,6.90
2018-12-09T12:10:50.903Z,6.80
2018-12-09T12:15:50.455Z,6.70
2018-12-09T12:20:54.423Z,6.30
2018-12-09T12:23:29.827Z,6.20
2018-12-09T12:28:32.687Z,6.10
2018-12-09T12:31:03.541Z,6.00
2018-12-09T12:33:39.656Z,5.90
2018-12-09T12:36:13.304Z,5.90
2018-12-09T12:38:55.800Z,5.90
2018-12-09T12:41:24.708Z,5.90
2018-12-09T12:43:53.727Z,5.90
2018-12-09T12:46:24.611Z,6.00
2018-12-09T12:51:22.453Z,6.10
2018-12-09T12:58:59.807Z,6.10
2018-12-09T13:01:28.600Z,6.20
2018-12-09T13:03:58.406Z,6.20
2018-12-09T13:06:35.881Z,6.20
2018-12-09T13:09:06.636Z,6.20
2018-12-09T13:14:06.232Z,6.20
2018-12-09T13:16:37.127Z,6.20
2018-12-09T13:19:05.952Z,6.20
2018-12-09T13:21:36.944Z,6.20
2018-12-09T13:24:16.931Z,6.10
2018-12-09T13:34:17.001Z,5.90
2018-12-09T13:36:49.083Z,5.80
2018-12-09T13:39:17.939Z,5.80
2018-12-09T13:44:15.640Z,5.80
2018-12-09T13:46:45.595Z,5.80
2018-12-09T13:51:44.248Z,5.90
2018-12-09T13:54:18.845Z,5.90
2018-12-09T13:56:49.551Z,5.90
2018-12-09T14:01:55.296Z,5.90
2018-12-09T14:04:28.279Z,5.90
2018-12-09T14:09:30.609Z,6.00
2018-12-09T14:12:00.363Z,6.00
2018-12-09T14:14:29.172Z,6.00
2018-12-09T14:16:58.967Z,6.00
2018-12-09T14:19:28.785Z,6.00
2018-12-09T14:21:59.632Z,5.90
2018-12-09T14:24:28.520Z,6.00
2018-12-09T14:26:57.348Z,5.90
2018-12-09T14:29:26.263Z,5.90
2018-12-09T14:31:56.479Z,5.90
2018-12-09T14:34:27.267Z,5.90
2018-12-09T14:39:26.364Z,5.90
2018-12-09T14:41:55.144Z,5.90
2018-12-09T14:44:24.012Z,5.90
2018-12-09T14:47:00.508Z,5.90
2018-12-09T14:49:31.337Z,5.90
2018-12-09T14:52:07.912Z,5.90
2018-12-09T14:54:38.640Z,5.80
2018-12-09T14:59:37.176Z,5.80
2018-12-09T15:02:11.848Z,5.80
2018-12-09T15:10:08.592Z,5.80
2018-12-09T15:12:43.684Z,5.80
2018-12-09T15:15:13.548Z,5.80
2018-12-09T15:17:45.460Z,5.80
2018-12-09T15:20:18.249Z,5.80
2018-12-09T15:22:54.440Z,5.80
2018-12-09T15:25:24.373Z,5.80
2018-12-09T15:27:57.724Z,5.80
2018-12-09T15:32:55.420Z,5.80
2018-12-09T15:35:27.420Z,5.90
2018-12-09T15:37:56.308Z,5.90
2018-12-09T15:40:26.024Z,5.90
2018-12-09T15:45:34.961Z,6.00
2018-12-09T15:48:11.525Z,6.00
2018-12-09T15:53:09.148Z,6.00
2018-12-09T15:58:22.080Z,6.00
2018-12-09T16:05:55.464Z,6.00
2018-12-09T16:08:36.652Z,6.00
2018-12-09T16:11:17.604Z,6.00
2018-12-09T16:13:50.512Z,6.00
2018-12-09T16:16:19.364Z,6.00
2018-12-09T16:18:48.288Z,5.90
2018-12-09T16:21:18.027Z,5.80
2018-12-09T16:23:50.264Z,5.80
2018-12-09T16:29:07.487Z,5.70
2018-12-09T16:34:11.879Z,5.70
2018-12-09T16:36:46.088Z,5.70
2018-12-09T16:39:21.651Z,5.70
2018-12-09T16:41:53.568Z,5.70
2018-12-09T16:44:27.063Z,5.70
2018-12-09T16:46:58.788Z,5.70
2018-12-09T16:51:58.356Z,5.70
2018-12-09T16:57:14.470Z,5.70
2018-12-09T17:04:42.893Z,5.70
2018-12-09T17:09:49.216Z,5.70
2018-12-09T17:14:55.501Z,5.60
2018-12-09T17:17:25.228Z,5.60
2018-12-09T17:19:55.048Z,5.60
2018-12-09T17:24:58.784Z,5.60
2018-12-09T17:27:45.692Z,5.60
2018-12-09T17:33:18.672Z,5.50
2018-12-09T17:36:07.632Z,5.60
2018-12-09T17:38:36.444Z,5.60
2018-12-09T17:41:07.164Z,5.60
2018-12-09T17:43:44.216Z,5.60
2018-12-09T17:48:45.720Z,5.60
2018-12-09T17:51:17.773Z,5.60
2018-12-09T17:53:47.488Z,5.60
2018-12-09T17:56:16.373Z,5.60
2018-12-09T18:01:17.217Z,5.60
2018-12-09T18:03:52.736Z,5.60
2018-12-09T18:06:25.649Z,5.50
2018-12-09T18:09:01.901Z,5.50
2018-12-09T18:14:03.327Z,5.50
2018-12-09T18:16:47.429Z,5.50
2018-12-09T18:19:47.253Z,5.40
2018-12-09T18:22:17.052Z,5.40
2018-12-09T18:24:49.664Z,5.40
2018-12-09T18:33:02.381Z,5.30
2018-12-09T18:35:36.001Z,5.30
2018-12-09T18:38:06.360Z,5.30
2018-12-09T18:43:05.308Z,5.30
2018-12-09T18:45:39.897Z,5.30
2018-12-09T18:48:08.797Z,5.30
2018-12-09T18:50:39.038Z,5.30
2018-12-09T18:55:42.889Z,5.30
2018-12-09T18:58:11.703Z,5.30
2018-12-09T19:00:41.361Z,5.30
2018-12-09T19:05:41.109Z,5.30
2018-12-09T19:15:46.993Z,5.30
2018-12-09T19:18:23.769Z,5.30
2018-12-09T19:20:54.193Z,6.10
2018-12-09T19:23:31.096Z,5.30
2018-12-09T19:28:32.453Z,5.10
2018-12-09T19:31:04.425Z,5.00
2018-12-09T19:36:04.857Z,4.80
2018-12-09T19:38:40.260Z,4.80
2018-12-09T19:43:44.142Z,4.70
2018-12-09T19:46:16.765Z,4.70
2018-12-09T19:48:49.498Z,4.60
2018-12-09T19:53:48.133Z,4.70
2018-12-09T20:03:51.950Z,4.60
2018-12-09T20:06:24.789Z,4.60
2018-12-09T20:08:55.672Z,4.60
2018-12-09T20:11:25.909Z,4.60
2018-12-09T20:13:54.817Z,4.70
2018-12-09T20:16:24.629Z,4.90
2018-12-09T20:18:55.677Z,4.90
2018-12-09T20:26:23.049Z,5.10
2018-12-09T20:28:52.821Z,5.10
2018-12-09T20:31:23.673Z,5.10
2018-12-09T20:39:02.076Z,5.10
2018-12-09T20:41:30.886Z,5.20
2018-12-09T20:44:04.585Z,5.20
2018-12-09T20:49:13.918Z,5.20
2018-12-09T20:51:44.677Z,5.20
2018-12-09T20:54:14.569Z,5.20
2018-12-09T20:56:43.497Z,5.20
2018-12-09T20:59:12.353Z,5.20
2018-12-09T21:04:15.794Z,5.30
2018-12-09T21:09:16.309Z,5.20
2018-12-09T21:11:47.052Z,5.20
2018-12-09T21:14:21.967Z,5.20
2018-12-09T21:16:50.888Z,5.20
2018-12-09T21:19:20.724Z,5.20
2018-12-09T21:21:49.545Z,5.20
2018-12-09T21:26:51.026Z,5.20
2018-12-09T21:31:53.853Z,5.20
2018-12-09T21:34:26.999Z,5.30
2018-12-09T21:36:57.997Z,5.30
2018-12-09T21:39:26.821Z,5.30
2018-12-09T21:42:09.085Z,5.30
2018-12-09T21:44:42.329Z,5.30
2018-12-09T21:47:13.084Z,5.20
2018-12-09T21:49:50.235Z,5.30
2018-12-09T21:54:52.886Z,5.30
2018-12-09T22:00:02.393Z,5.30
2018-12-09T22:02:31.245Z,5.30
2018-12-09T22:07:48.053Z,5.30
2018-12-09T22:10:17.869Z,5.30
2018-12-09T22:13:08.597Z,5.30
2018-12-09T22:15:51.701Z,5.30
2018-12-09T22:18:21.768Z,5.30
2018-12-09T22:20:55.445Z,5.30
2018-12-09T22:23:24.297Z,5.30
2018-12-09T22:28:29.903Z,5.20
2018-12-09T22:31:02.026Z,5.20
2018-12-09T22:33:34.661Z,5.20
2018-12-09T22:36:04.509Z,5.10
2018-12-09T22:41:03.553Z,5.10
2018-12-09T22:43:32.360Z,5.10
2018-12-09T22:51:19.540Z,5.10
2018-12-09T22:56:23.015Z,5.10
2018-12-09T22:58:51.853Z,5.10
2018-12-09T23:01:21.780Z,5.10
2018-12-09T23:09:00.700Z,5.10
2018-12-09T23:11:30.609Z,5.00
2018-12-09T23:14:00.327Z,5.10
2018-12-09T23:16:30.153Z,5.10
2018-12-09T23:18:59.012Z,5.10
2018-12-09T23:31:26.660Z,5.20
2018-12-09T23:33:55.455Z,5.20
2018-12-09T23:36:29.240Z,5.20
2018-12-09T23:41:28.260Z,5.20
2018-12-09T23:43:59.140Z,5.20
2018-12-09T23:46:27.943Z,5.20
2018-12-09T23:48:57.685Z,5.20
2018-12-09T23:51:26.512Z,5.20
2018-12-09T23:53:56.319Z,5.20
2018-12-09T23:58:58.800Z,5.10
